Main page
Satellite images 10-day forecastsClimateMarine weather Cyclones Lightning AirportsFAQ Newsletter About
Weather : Europe Africa North America South America Asia Australia-Oceania Others
Languages Contact

New Delhi, India

Indira Gandhi International Airport

latitude: 28-34N, longitude: 077-07E, elevation: 220 m


METAR: VIDP 302130Z 28007KT 2100 HZ FEW100 32/13 Q1003 NOSIG
TAF: VIDP 301500Z 3018/3103 26005KT 2500 DU/HZ FEW040 SCT100 BECMG 3022/3024 00000KT 1500 HZ

Time: 03:49 (22:19 UTC)

Current weather observation

The report was made 49 minutes ago, at 21:30 UTC
Wind 7 kt from the West
Temperature 32°C
Humidity 32%
Pressure 1003 hPa
Visibility: 2100 m
Few clouds at a height of 10000 ft
haze

Change units

Forecast

The report was made 7 hours and 19 minutes ago, at 15:00 UTC
Forecast valid from 30 at 18 UTC to 31 at 03 UTC
Wind 5 kt from the West
Visibility: 2500 m
Few clouds at a height of 4000 ft
Scattered clouds at a height of 10000 ft
Becoming
from 30 at 22 UTC to 30 at 24 UTC
Wind kt from the North
Visibility: 1500 m
haze
The information on this site is subject to a disclaimer
Weather : Europe Africa North America South America Asia Australia-Oceania Others
Satellite images 10-day forecastsClimateMarine weather Cyclones Lightning AirportsFAQ Languages Contact Newsletter About